createdAt,value
2022-08-14T00:01:23.991Z,100.00
2022-08-14T00:04:34.249Z,100.00
2022-08-14T00:07:15.554Z,100.00
2022-08-14T00:10:49.161Z,100.00
2022-08-14T00:13:07.126Z,100.00
2022-08-14T00:15:53.424Z,100.00
2022-08-14T00:19:06.967Z,100.00
2022-08-14T00:21:47.229Z,100.00
2022-08-14T00:24:32.027Z,100.00
2022-08-14T00:27:19.956Z,100.00
2022-08-14T00:30:08.140Z,100.00
2022-08-14T00:32:56.766Z,100.00
2022-08-14T00:36:33.742Z,100.00
2022-08-14T00:38:46.206Z,100.00
2022-08-14T00:41:31.972Z,100.00
2022-08-14T00:44:21.347Z,100.00
2022-08-14T00:47:18.815Z,100.00
2022-08-14T00:50:08.108Z,100.00
2022-08-14T00:53:03.537Z,100.00
2022-08-14T00:55:50.504Z,100.00
2022-08-14T00:58:44.939Z,100.00
2022-08-14T01:01:33.050Z,100.00
2022-08-14T01:04:37.869Z,100.00
2022-08-14T01:07:27.328Z,100.00
2022-08-14T01:10:12.322Z,100.00
2022-08-14T01:12:58.086Z,100.00
2022-08-14T01:15:57.696Z,100.00
2022-08-14T01:19:06.172Z,100.00
2022-08-14T01:21:53.822Z,100.00
2022-08-14T01:24:38.896Z,100.00
2022-08-14T01:27:24.638Z,100.00
2022-08-14T01:30:10.444Z,100.00
2022-08-14T01:32:55.454Z,100.00
2022-08-14T01:36:03.792Z,100.00
2022-08-14T01:38:50.649Z,100.00
2022-08-14T01:41:36.774Z,100.00
2022-08-14T01:44:32.241Z,100.00
2022-08-14T01:47:22.219Z,100.00
2022-08-14T01:50:09.058Z,100.00
2022-08-14T01:52:59.277Z,100.00
2022-08-14T01:55:45.251Z,100.00
2022-08-14T01:58:30.835Z,100.00
2022-08-14T02:01:18.357Z,100.00
2022-08-14T02:04:04.780Z,100.00
2022-08-14T02:07:06.846Z,100.00
2022-08-14T02:10:06.491Z,100.00
2022-08-14T02:12:57.103Z,100.00
2022-08-14T02:15:43.565Z,100.00
2022-08-14T02:18:32.671Z,100.00
2022-08-14T02:21:23.217Z,100.00
2022-08-14T02:24:38.245Z,100.00
2022-08-14T02:28:23.505Z,100.00
2022-08-14T02:30:19.105Z,100.00
2022-08-14T02:33:05.017Z,100.00
2022-08-14T02:35:53.505Z,100.00
2022-08-14T02:38:45.389Z,100.00
2022-08-14T02:41:36.785Z,100.00
2022-08-14T02:44:29.686Z,100.00
2022-08-14T02:47:19.141Z,100.00
2022-08-14T02:50:06.459Z,100.00
2022-08-14T02:52:56.264Z,100.00
2022-08-14T02:55:47.816Z,100.00
2022-08-14T02:58:37.423Z,100.00
2022-08-14T03:01:31.469Z,100.00
2022-08-14T03:04:29.936Z,100.00
2022-08-14T03:07:17.051Z,100.00
2022-08-14T03:10:25.743Z,100.00
2022-08-14T03:13:07.516Z,100.00
2022-08-14T03:16:09.234Z,100.00
2022-08-14T03:19:08.178Z,100.00
2022-08-14T03:21:57.033Z,100.00
2022-08-14T03:24:42.156Z,100.00
2022-08-14T03:27:35.461Z,100.00
2022-08-14T03:30:39.428Z,100.00
2022-08-14T03:33:27.056Z,100.00
2022-08-14T03:37:39.494Z,100.00
2022-08-14T03:39:22.993Z,100.00
2022-08-14T03:42:18.877Z,100.00
2022-08-14T03:45:19.530Z,100.00
2022-08-14T03:48:26.713Z,100.00
2022-08-14T03:51:15.484Z,100.00
2022-08-14T03:54:03.965Z,100.00
2022-08-14T03:56:50.279Z,100.00
2022-08-14T03:59:36.425Z,100.00
2022-08-14T04:02:32.600Z,100.00
2022-08-14T04:05:22.177Z,100.00
2022-08-14T04:08:28.988Z,100.00
2022-08-14T04:11:14.806Z,100.00
2022-08-14T04:14:00.679Z,100.00
2022-08-14T04:16:47.140Z,100.00
2022-08-14T04:19:33.014Z,100.00
2022-08-14T04:22:21.875Z,100.00
2022-08-14T04:25:07.853Z,100.00
2022-08-14T04:28:02.510Z,100.00
2022-08-14T04:30:48.398Z,100.00
2022-08-14T04:33:34.057Z,100.00
2022-08-14T04:36:19.937Z,100.00
2022-08-14T04:39:27.286Z,100.00
2022-08-14T04:42:32.106Z,100.00
2022-08-14T04:45:17.404Z,100.00
2022-08-14T04:48:38.834Z,100.00
2022-08-14T04:51:27.335Z,100.00
2022-08-14T04:54:12.242Z,100.00
2022-08-14T04:56:58.329Z,100.00
2022-08-14T04:59:43.804Z,99.19
2022-08-14T05:02:29.194Z,97.49
2022-08-14T05:05:17.050Z,95.63
2022-08-14T05:08:11.755Z,94.85
2022-08-14T05:11:18.857Z,94.57
2022-08-14T05:14:17.257Z,93.57
2022-08-14T05:17:13.139Z,93.55
2022-08-14T05:21:54.325Z,92.27
2022-08-14T05:23:03.543Z,90.76
2022-08-14T05:25:51.342Z,90.18
2022-08-14T05:28:38.554Z,89.40
2022-08-14T05:31:23.618Z,88.53
2022-08-14T05:34:31.951Z,86.88
2022-08-14T05:37:17.201Z,86.81
2022-08-14T05:40:02.691Z,86.58
2022-08-14T05:42:52.832Z,85.96
2022-08-14T05:45:39.119Z,85.20
2022-08-14T05:48:33.568Z,84.67
2022-08-14T05:51:25.250Z,85.04
2022-08-14T05:54:26.608Z,84.77
2022-08-14T05:57:12.413Z,84.00
2022-08-14T05:59:57.230Z,83.54
2022-08-14T06:02:45.695Z,82.36
2022-08-14T06:05:30.898Z,82.17
2022-08-14T06:08:22.009Z,82.89
2022-08-14T06:11:30.624Z,82.01
2022-08-14T06:14:21.935Z,81.08
2022-08-14T06:17:08.977Z,79.54
2022-08-14T06:19:54.131Z,79.44
2022-08-14T06:22:42.503Z,79.54
2022-08-14T06:25:30.965Z,79.45
2022-08-14T06:28:27.526Z,80.09
2022-08-14T06:31:13.497Z,80.17
2022-08-14T06:35:04.623Z,80.55
2022-08-14T06:37:04.382Z,80.74
2022-08-14T06:39:49.767Z,81.58
2022-08-14T06:42:34.663Z,81.77
2022-08-14T06:45:20.931Z,82.10
2022-08-14T06:48:14.337Z,80.80
2022-08-14T06:51:03.069Z,81.06
2022-08-14T06:53:48.538Z,78.80
2022-08-14T06:56:33.201Z,76.97
2022-08-14T06:59:19.127Z,75.69
2022-08-14T07:02:23.602Z,72.85
2022-08-14T07:05:32.478Z,69.96
2022-08-14T07:08:21.620Z,66.24
2022-08-14T07:11:11.650Z,63.73
2022-08-14T07:13:57.005Z,62.54
2022-08-14T07:16:41.706Z,61.95
2022-08-14T07:19:27.408Z,62.37
2022-08-14T07:22:20.282Z,61.04
2022-08-14T07:25:05.960Z,60.71
2022-08-14T07:27:51.079Z,61.26
2022-08-14T07:30:36.536Z,61.08
2022-08-14T07:33:30.160Z,61.37
2022-08-14T07:36:26.499Z,60.62
2022-08-14T07:39:15.079Z,60.65
2022-08-14T07:42:00.034Z,59.59
2022-08-14T07:44:50.342Z,59.74
2022-08-14T07:47:40.903Z,61.05
2022-08-14T07:50:26.825Z,58.99
2022-08-14T07:53:21.062Z,60.52
2022-08-14T07:56:21.505Z,59.75
2022-08-14T07:59:09.060Z,58.55
2022-08-14T08:01:58.552Z,57.25
2022-08-14T08:04:46.401Z,56.36
2022-08-14T08:07:35.449Z,56.64
2022-08-14T08:11:01.612Z,56.53
2022-08-14T08:13:41.064Z,56.20
2022-08-14T08:16:36.020Z,56.14
2022-08-14T08:19:21.384Z,54.77
2022-08-14T08:22:06.448Z,54.69
2022-08-14T08:24:51.536Z,54.79
2022-08-14T08:27:36.562Z,53.85
2022-08-14T08:30:31.837Z,54.32
2022-08-14T08:33:18.805Z,54.14
2022-08-14T08:36:07.975Z,53.19
2022-08-14T08:39:17.743Z,52.38
2022-08-14T08:42:04.815Z,52.28
2022-08-14T08:44:54.655Z,52.21
2022-08-14T08:47:40.555Z,52.00
2022-08-14T08:53:17.130Z,51.84
2022-08-14T08:56:03.413Z,51.41
2022-08-14T08:58:50.262Z,49.10
2022-08-14T09:01:36.455Z,50.60
2022-08-14T09:04:21.585Z,48.98
2022-08-14T09:07:10.796Z,48.20
2022-08-14T09:09:59.108Z,49.45
2022-08-14T09:12:51.490Z,49.80
2022-08-14T09:15:42.764Z,49.14
2022-08-14T09:18:28.583Z,47.37
2022-08-14T09:21:13.615Z,47.88
2022-08-14T09:24:27.985Z,46.48
2022-08-14T09:27:06.980Z,46.99
2022-08-14T09:29:53.984Z,46.64
2022-08-14T09:33:00.303Z,46.97
2022-08-14T09:36:13.614Z,46.23
2022-08-14T09:39:23.309Z,45.32
2022-08-14T09:42:50.181Z,46.15
2022-08-14T09:45:53.298Z,45.91
2022-08-14T09:48:39.341Z,46.74
2022-08-14T09:51:32.947Z,48.20
2022-08-14T09:54:37.847Z,47.16
2022-08-14T09:57:29.713Z,47.46
2022-08-14T10:00:30.167Z,45.90
2022-08-14T10:03:34.737Z,46.96
2022-08-14T10:06:28.322Z,45.85
2022-08-14T10:09:16.789Z,45.84
2022-08-14T10:12:04.579Z,44.61
2022-08-14T10:14:53.402Z,41.61
2022-08-14T10:17:39.762Z,42.41
2022-08-14T10:20:39.546Z,41.70
2022-08-14T10:23:42.220Z,43.33
2022-08-14T10:26:28.426Z,40.65
2022-08-14T10:29:19.532Z,39.47
2022-08-14T10:32:18.154Z,41.55
2022-08-14T10:35:13.472Z,39.81
2022-08-14T10:38:00.206Z,40.74
2022-08-14T10:40:52.277Z,39.89
2022-08-14T10:43:45.278Z,41.29
2022-08-14T10:47:38.960Z,36.83
2022-08-14T10:50:15.012Z,37.61
2022-08-14T10:53:03.319Z,38.07
2022-08-14T10:55:58.480Z,37.54
2022-08-14T10:58:43.253Z,36.88
2022-08-14T11:01:40.930Z,36.18
2022-08-14T11:04:27.922Z,36.98
2022-08-14T11:07:19.243Z,35.76
2022-08-14T11:10:12.174Z,35.14
2022-08-14T11:12:57.298Z,35.96
2022-08-14T11:15:45.584Z,35.46
2022-08-14T11:18:40.080Z,35.08
2022-08-14T11:21:30.270Z,34.00
2022-08-14T11:24:53.892Z,33.37
2022-08-14T11:27:33.432Z,34.72
2022-08-14T11:30:49.978Z,33.24
2022-08-14T11:33:32.536Z,33.50
2022-08-14T11:36:21.910Z,34.00
2022-08-14T11:39:09.776Z,32.95
2022-08-14T11:41:57.113Z,32.22
2022-08-14T11:44:46.336Z,32.12
2022-08-14T11:47:34.737Z,31.88
2022-08-14T11:50:34.134Z,31.14
2022-08-14T11:53:28.096Z,32.75
2022-08-14T11:56:17.518Z,35.68
2022-08-14T11:59:02.596Z,37.34
2022-08-14T12:01:49.065Z,38.47
2022-08-14T12:04:35.000Z,38.78
2022-08-14T12:07:21.462Z,38.24
2022-08-14T12:10:42.361Z,39.28
2022-08-14T12:13:18.457Z,40.19
2022-08-14T12:16:15.183Z,38.36
2022-08-14T12:19:05.817Z,35.72
2022-08-14T12:21:54.345Z,34.03
2022-08-14T12:24:43.308Z,34.24
2022-08-14T12:27:52.818Z,38.77
2022-08-14T12:30:43.413Z,39.06
2022-08-14T12:33:33.500Z,40.59
2022-08-14T12:36:20.902Z,39.86
2022-08-14T12:39:21.183Z,37.54
2022-08-14T12:42:06.382Z,34.09
2022-08-14T12:44:51.279Z,34.61
2022-08-14T12:47:37.386Z,31.48
2022-08-14T12:50:22.393Z,29.76
2022-08-14T12:53:14.732Z,30.38
2022-08-14T12:56:21.715Z,30.18
2022-08-14T12:59:08.808Z,30.38
2022-08-14T13:01:58.982Z,30.52
2022-08-14T13:04:48.432Z,33.19
2022-08-14T13:07:33.319Z,32.03
2022-08-14T13:10:47.218Z,32.82
2022-08-14T13:13:32.788Z,33.54
2022-08-14T13:16:20.454Z,35.25
2022-08-14T13:19:19.860Z,34.54
2022-08-14T13:22:10.153Z,35.59
2022-08-14T13:25:05.650Z,36.31
2022-08-14T13:28:00.124Z,36.61
2022-08-14T13:30:45.729Z,36.33
2022-08-14T13:33:32.414Z,38.36
2022-08-14T13:36:24.230Z,41.08
2022-08-14T13:39:10.442Z,42.91
2022-08-14T13:42:00.733Z,43.78
2022-08-14T13:44:46.065Z,42.64
2022-08-14T13:47:32.393Z,41.48
2022-08-14T13:50:20.457Z,41.78
2022-08-14T13:53:09.298Z,43.84
2022-08-14T13:55:56.147Z,43.85
2022-08-14T13:58:47.113Z,44.81
2022-08-14T14:01:42.756Z,45.11
2022-08-14T14:04:30.616Z,43.87
2022-08-14T14:07:19.942Z,44.92
2022-08-14T14:10:09.034Z,44.82
2022-08-14T14:12:53.937Z,44.71
2022-08-14T14:15:57.848Z,44.15
2022-08-14T14:18:51.996Z,44.85
2022-08-14T14:21:40.977Z,45.45
2022-08-14T14:24:34.507Z,45.59
2022-08-14T14:30:51.747Z,48.07
2022-08-14T14:33:49.696Z,49.64
2022-08-14T14:36:36.539Z,51.55
2022-08-14T14:39:27.592Z,51.82
2022-08-14T14:42:18.361Z,53.05
2022-08-14T14:45:22.842Z,52.60
2022-08-14T14:48:09.360Z,50.98
2022-08-14T14:51:00.747Z,50.44
2022-08-14T14:53:46.254Z,50.52
2022-08-14T14:56:50.580Z,50.25
2022-08-14T14:59:37.054Z,49.33
2022-08-14T15:02:37.610Z,48.18
2022-08-14T15:05:23.576Z,49.38
2022-08-14T15:08:16.923Z,49.42
2022-08-14T15:11:13.679Z,48.36
2022-08-14T15:14:00.107Z,49.48
2022-08-14T15:16:46.509Z,50.59
2022-08-14T15:19:31.874Z,50.82
2022-08-14T15:22:17.464Z,50.93
2022-08-14T15:25:02.982Z,50.49
2022-08-14T15:27:50.569Z,51.47
2022-08-14T15:30:45.429Z,50.92
2022-08-14T15:34:33.321Z,51.33
2022-08-14T15:36:59.838Z,51.43
2022-08-14T15:39:44.643Z,51.31
2022-08-14T15:42:32.116Z,51.87
2022-08-14T15:45:17.241Z,51.89
2022-08-14T15:48:02.332Z,53.73
2022-08-14T15:50:50.715Z,55.69
2022-08-14T15:53:36.522Z,55.41
2022-08-14T15:56:43.112Z,55.69
2022-08-14T15:59:47.700Z,56.13
2022-08-14T16:02:34.869Z,55.67
2022-08-14T16:05:24.573Z,56.37
2022-08-14T16:08:26.550Z,57.90
2022-08-14T16:11:14.594Z,58.06
2022-08-14T16:14:00.998Z,58.83
2022-08-14T16:16:50.522Z,60.56
2022-08-14T16:19:47.082Z,60.32
2022-08-14T16:23:00.224Z,60.96
2022-08-14T16:25:43.598Z,61.52
2022-08-14T16:28:33.116Z,62.74
2022-08-14T16:31:20.527Z,62.85
2022-08-14T16:34:44.188Z,63.32
2022-08-14T16:37:18.457Z,64.10
2022-08-14T16:40:04.169Z,64.46
2022-08-14T16:43:04.791Z,65.13
2022-08-14T16:45:57.521Z,65.51
2022-08-14T16:48:57.883Z,65.28
2022-08-14T16:51:44.174Z,64.40
2022-08-14T16:54:35.043Z,64.11
2022-08-14T16:57:32.368Z,62.74
2022-08-14T17:00:44.021Z,62.10
2022-08-14T17:03:30.437Z,61.14
2022-08-14T17:06:45.741Z,61.78
2022-08-14T17:09:47.990Z,62.51
2022-08-14T17:12:35.111Z,62.96
2022-08-14T17:15:20.011Z,64.16
2022-08-14T17:18:05.554Z,65.11
2022-08-14T17:21:00.256Z,66.38
2022-08-14T17:23:57.149Z,67.87
2022-08-14T17:26:50.218Z,68.72
2022-08-14T17:29:56.138Z,70.14
2022-08-14T17:32:57.094Z,71.46
2022-08-14T17:35:58.480Z,71.70
2022-08-14T17:39:06.714Z,72.27
2022-08-14T17:42:01.813Z,72.41
2022-08-14T17:44:48.252Z,73.15
2022-08-14T17:47:34.038Z,74.01
2022-08-14T17:50:59.742Z,74.35
2022-08-14T17:53:53.600Z,75.04
2022-08-14T17:56:49.063Z,75.73
2022-08-14T17:59:39.548Z,76.49
2022-08-14T18:02:31.057Z,77.19
2022-08-14T18:05:17.193Z,77.15
2022-08-14T18:08:31.982Z,78.12
2022-08-14T18:11:21.358Z,78.64
2022-08-14T18:14:09.284Z,79.36
2022-08-14T18:17:15.922Z,79.30
2022-08-14T18:21:24.099Z,79.90
2022-08-14T18:23:10.600Z,79.90
2022-08-14T18:25:59.312Z,80.25
2022-08-14T18:28:51.619Z,80.55
2022-08-14T18:31:42.362Z,81.03
2022-08-14T18:34:37.686Z,81.42
2022-08-14T18:37:23.030Z,81.54
2022-08-14T18:40:17.862Z,81.97
2022-08-14T18:43:03.909Z,82.29
2022-08-14T18:46:06.879Z,82.37
2022-08-14T18:49:15.755Z,82.36
2022-08-14T18:52:18.550Z,81.78
2022-08-14T18:55:22.769Z,81.76
2022-08-14T18:58:26.631Z,81.74
2022-08-14T19:01:25.585Z,81.66
2022-08-14T19:04:36.971Z,81.32
2022-08-14T19:07:23.201Z,81.26
2022-08-14T19:10:10.118Z,81.12
2022-08-14T19:13:04.889Z,81.41
2022-08-14T19:16:03.692Z,81.15
2022-08-14T19:18:51.398Z,80.83
2022-08-14T19:21:42.119Z,80.47
2022-08-14T19:24:34.100Z,81.09
2022-08-14T19:27:26.082Z,80.86
2022-08-14T19:30:19.617Z,80.83
2022-08-14T19:33:59.910Z,80.32
2022-08-14T19:37:05.041Z,80.75
2022-08-14T19:39:54.167Z,80.85
2022-08-14T19:42:46.812Z,80.93
2022-08-14T19:45:33.759Z,80.83
2022-08-14T19:48:19.371Z,80.70
2022-08-14T19:51:05.416Z,80.86
2022-08-14T19:54:06.143Z,80.76
2022-08-14T19:56:59.029Z,80.26
2022-08-14T19:59:58.082Z,79.96
2022-08-14T20:02:49.595Z,79.85
2022-08-14T20:05:46.124Z,79.88
2022-08-14T20:11:07.164Z,79.78
2022-08-14T20:12:00.455Z,79.85
2022-08-14T20:14:51.720Z,80.25
2022-08-14T20:17:40.553Z,80.68
2022-08-14T20:20:31.645Z,81.15
2022-08-14T20:23:18.272Z,81.36
2022-08-14T20:26:03.697Z,81.66
2022-08-14T20:28:55.502Z,82.08
2022-08-14T20:31:40.381Z,82.80
2022-08-14T20:34:39.973Z,83.15
2022-08-14T20:37:37.028Z,83.96
2022-08-14T20:40:24.176Z,84.25
2022-08-14T20:43:45.703Z,84.68
2022-08-14T20:46:38.610Z,84.79
2022-08-14T20:49:29.644Z,85.03
2022-08-14T20:52:18.919Z,84.67
2022-08-14T20:55:24.628Z,84.84
2022-08-14T20:58:38.554Z,84.98
2022-08-14T21:01:33.429Z,84.72
2022-08-14T21:04:34.141Z,84.80
2022-08-14T21:07:26.163Z,84.46
2022-08-14T21:10:35.992Z,84.44
2022-08-14T21:14:26.277Z,84.17
2022-08-14T21:16:58.602Z,84.22
2022-08-14T21:19:44.772Z,83.82
2022-08-14T21:22:36.510Z,83.88
2022-08-14T21:25:21.464Z,84.07
2022-08-14T21:28:30.108Z,83.96
2022-08-14T21:31:16.182Z,84.07
2022-08-14T21:34:01.847Z,84.56
2022-08-14T21:36:53.951Z,84.48
2022-08-14T21:39:39.337Z,84.93
2022-08-14T21:42:27.978Z,85.11
2022-08-14T21:45:13.647Z,84.62
2022-08-14T21:47:58.707Z,84.85
2022-08-14T21:51:01.480Z,85.16
2022-08-14T21:53:58.791Z,85.38
2022-08-14T21:56:57.425Z,85.64
2022-08-14T21:59:43.242Z,85.73
2022-08-14T22:02:32.482Z,86.03
2022-08-14T22:05:19.361Z,86.27
2022-08-14T22:08:05.983Z,86.80
2022-08-14T22:10:52.038Z,87.38
2022-08-14T22:13:46.430Z,87.57
2022-08-14T22:17:03.270Z,88.05
2022-08-14T22:19:54.395Z,88.54
2022-08-14T22:22:41.509Z,88.96
2022-08-14T22:25:33.152Z,89.35
2022-08-14T22:28:27.436Z,89.69
2022-08-14T22:31:23.130Z,89.86
2022-08-14T22:34:10.279Z,90.15
2022-08-14T22:36:55.048Z,90.14
2022-08-14T22:40:48.356Z,90.55
2022-08-14T22:43:00.074Z,90.84
2022-08-14T22:45:55.086Z,91.07
2022-08-14T22:48:40.865Z,91.26
2022-08-14T22:51:27.636Z,91.42
2022-08-14T22:54:52.157Z,91.47
2022-08-14T22:57:18.834Z,91.74
2022-08-14T23:00:14.767Z,91.87
2022-08-14T23:03:09.004Z,91.94
2022-08-14T23:07:03.481Z,92.54
2022-08-14T23:09:35.959Z,92.50
2022-08-14T23:12:28.020Z,92.64
2022-08-14T23:15:16.410Z,93.04
2022-08-14T23:18:04.560Z,93.29
2022-08-14T23:20:52.851Z,93.49
2022-08-14T23:23:38.482Z,93.97
2022-08-14T23:26:49.540Z,94.21
2022-08-14T23:29:33.502Z,94.31
2022-08-14T23:32:19.110Z,94.29
2022-08-14T23:35:05.198Z,94.82
2022-08-14T23:37:52.541Z,94.94
2022-08-14T23:40:38.534Z,95.19
2022-08-14T23:43:24.127Z,95.51
2022-08-14T23:46:12.871Z,95.64
2022-08-14T23:48:58.181Z,95.99
2022-08-14T23:51:43.051Z,96.24
2022-08-14T23:54:48.715Z,96.49
2022-08-14T23:57:43.534Z,96.93
